createdAt,value
2022-10-17T00:17:55.813Z,0
2022-10-17T00:37:55.864Z,0
2022-10-17T00:57:55.722Z,0
2022-10-17T01:17:55.694Z,0
2022-10-17T01:37:55.632Z,0
2022-10-17T01:58:02.645Z,0
2022-10-17T02:17:55.544Z,0
2022-10-17T02:37:55.526Z,0
2022-10-17T02:57:55.462Z,0
2022-10-17T03:17:55.419Z,0
2022-10-17T03:37:55.378Z,0
2022-10-17T03:57:55.353Z,0
2022-10-17T04:37:55.262Z,0
2022-10-17T04:57:55.256Z,0
2022-10-17T05:17:55.160Z,25
2022-10-17T05:38:09.133Z,260
2022-10-17T05:58:02.097Z,947
2022-10-17T06:17:55.054Z,1677
2022-10-17T06:38:01.991Z,11643
2022-10-17T06:57:54.967Z,22735
2022-10-17T07:17:54.941Z,17461
2022-10-17T07:37:54.881Z,28182
2022-10-17T07:57:54.830Z,23075
2022-10-17T08:17:54.754Z,35405
2022-10-17T08:37:54.756Z,37010
2022-10-17T09:17:54.608Z,36585
2022-10-17T09:37:54.560Z,25912
2022-10-17T09:58:01.536Z,5856
2022-10-17T10:18:08.517Z,5380
2022-10-17T10:37:54.396Z,4990
2022-10-17T10:58:01.376Z,5219
2022-10-17T11:18:01.469Z,4700
2022-10-17T11:38:01.264Z,3932
2022-10-17T11:57:54.216Z,4400
2022-10-17T12:17:54.153Z,4082
2022-10-17T12:37:57.264Z,3939
2022-10-17T12:57:54.064Z,3739
2022-10-17T13:17:54.002Z,3233
2022-10-17T13:57:53.934Z,3593
2022-10-17T14:17:53.911Z,2325
2022-10-17T14:37:53.806Z,1663
2022-10-17T14:57:53.792Z,1361
2022-10-17T15:18:00.732Z,1179
2022-10-17T15:38:00.649Z,506
2022-10-17T15:57:53.642Z,153
2022-10-17T16:18:08.670Z,21
2022-10-17T16:38:00.522Z,0
2022-10-17T16:57:53.442Z,0
2022-10-17T17:18:04.250Z,0
2022-10-17T17:37:53.359Z,0
2022-10-17T17:57:53.304Z,0
2022-10-17T18:17:53.277Z,0
2022-10-17T18:37:53.288Z,0
2022-10-17T18:57:53.292Z,0
2022-10-17T19:18:00.140Z,0
2022-10-17T19:38:00.090Z,0
2022-10-17T19:57:53.039Z,0
2022-10-17T20:17:52.992Z,0
2022-10-17T20:37:52.965Z,0
2022-10-17T20:57:52.919Z,0
2022-10-17T21:17:52.898Z,0
2022-10-17T21:37:52.826Z,0
2022-10-17T21:57:52.850Z,0
2022-10-17T22:37:52.669Z,0
2022-10-17T22:57:52.638Z,0
2022-10-17T23:37:52.558Z,0
2022-10-17T23:57:52.490Z,0
